Flight Track Log - Related Links

Times and Time Zones

All times are in EDT time to prevent confusion due to time zone crossing. See the N789EX flight status page for this flight to view local times or setup timezone preferences in your user account.

Time Position Orientation Groundspeed Altitude Reporting Facility
EDT Latitude Longitude Course Direction KTS MPH feet Rate Location/Type
Fri 03:37:14 PM 47.4383 -122.2031 247° West 248 285 4,000  Level Seattle Center
Fri 03:42:00 PM 47.5300 -122.3020 247° West  Level Estimated
Fri 03:42:39 PM 47.8505 -122.2240 333° Northwest 385 443 17,700  Level FlightAware ADS-B
Fri 03:43:00 PM 47.8840 -122.2490 333° Northwest 390 449 18,400 2,077 Climbing FlightAware ADS-B
Fri 03:43:05 PM 47.8916 -122.2541 336° Northwest 391 450 18,600 2,571 Climbing FlightAware ADS-B (CYVR)
Fri 03:43:07 PM 47.8959 -122.2570 338° Northwest 391 450 18,700 2,250 Climbing FlightAware ADS-B
Fri 03:43:13 PM 47.9070 -122.2620 345° North 392 451 18,900 1,846 Climbing FlightAware ADS-B
Fri 03:43:20 PM 47.9195 -122.2650 355° North 393 452 19,100 1,500 Climbing FlightAware ADS-B
Fri 03:43:25 PM 47.9228 -122.2646 North 394 453 19,200 1,500 Climbing FlightAware ADS-B (CYVR)
Fri 03:43:28 PM 47.9333 -122.2630 North 394 453 19,300 1,714 Climbing FlightAware ADS-B
Fri 03:43:32 PM 47.9415 -122.2610 15° North 395 455 19,400 2,000 Climbing FlightAware ADS-B
Fri 03:43:37 PM 47.9495 -122.2566 21° North 396 456 19,600 1,714 Climbing FlightAware ADS-B
Fri 03:43:39 PM 47.9522 -122.2550 22° Northeast 396 456 19,600 2,000 Level FlightAware ADS-B
Fri 03:43:49 PM 47.9698 -122.2420 28° Northeast 398 458 20,000 2,069 Climbing FlightAware ADS-B
Fri 03:44:08 PM 47.9998 -122.2166 29° Northeast 402 463 20,600 1,935 Climbing FlightAware ADS-B
Fri 03:44:20 PM 48.0187 -122.2010 29° Northeast 404 465 21,000 1,941 Climbing FlightAware ADS-B
Fri 03:44:42 PM 48.0528 -122.1721 31° Northeast 409 471 21,700 1,941 Climbing FlightAware ADS-B
Fri 03:44:54 PM 48.0745 -122.1500 38° Northeast 410 472 22,100 2,250 Climbing FlightAware ADS-B
Fri 03:44:58 PM 48.0806 -122.1430 41° Northeast 411 473 22,300 2,500 Climbing FlightAware ADS-B
Fri 03:45:06 PM 48.0916 -122.1270 46° Northeast 412 474 22,600 2,000 Climbing FlightAware ADS-B
Fri 03:45:10 PM 48.0967 -122.1190 49° Northeast 413 475 22,700 1,714 Climbing FlightAware ADS-B
Fri 03:45:20 PM 48.1083 -122.0960 55° Northeast 416 479 23,000 1,875 Climbing FlightAware ADS-B
Fri 03:45:26 PM 48.1144 -122.0810 60° Northeast 417 480 23,200 1,714 Climbing FlightAware ADS-B
Fri 03:45:27 PM 48.1039 -122.1054 60° Northeast 417 480 23,200 857 Level FlightAware ADS-B
Fri 03:45:33 PM 48.1195 -122.0660 66° East 418 481 23,300 1,800 Climbing FlightAware ADS-B
Fri 03:45:37 PM 48.1223 -122.0540 71° East 419 482 23,500 2,400 Climbing FlightAware ADS-B
Fri 03:45:43 PM 48.1252 -122.0350 79° East 421 484 23,700 1,636 Climbing FlightAware ADS-B
Fri 03:45:48 PM 48.1258 -122.0266 87° East 425 489 23,800 1,000 Climbing FlightAware ADS-B
Fri 03:45:49 PM 48.1261 -122.0180 88° East 425 489 23,800 750 Level FlightAware ADS-B
Fri 03:45:56 PM 48.1259 -121.9990 92° East 429 494 23,900 750 Climbing FlightAware ADS-B
Fri 03:46:21 PM 48.1222 -121.9245 94° East 444 511 24,200 800 Climbing FlightAware ADS-B
Fri 03:46:26 PM 48.1214 -121.9070 94° East 445 512 24,300 1,548 Climbing FlightAware ADS-B
Fri 03:46:52 PM 48.1181 -121.8378 94° East 452 520 25,000 1,400 Climbing FlightAware ADS-B (CYVR)
Fri 03:46:56 PM 48.1170 -121.8150 94° East 454 522 25,000  Level FlightAware ADS-B
Fri 03:47:27 PM 48.1124 -121.7160 94° East 467 537 25,000  Level FlightAware ADS-B
Fri 03:47:56 PM 48.1084 -121.6267 94° East 467 537 25,000  Level FlightAware ADS-B
Fri 03:47:57 PM 48.1080 -121.6190 94° East 467 537 25,000  Level FlightAware ADS-B
Fri 03:48:27 PM 48.1037 -121.5222 94° East 466 536 25,000  Level FlightAware ADS-B
Fri 03:48:28 PM 48.1036 -121.5210 94° East 466 536 25,000  Level FlightAware ADS-B
Fri 03:48:58 PM 48.0992 -121.4230 94° East 473 544 25,000  Level FlightAware ADS-B
Fri 03:49:12 PM 48.0978 -121.3925 94° East 474 545 25,000  Level FlightAware ADS-B
Fri 03:49:29 PM 48.0947 -121.3230 94° East 475 547 25,000  Level FlightAware ADS-B
Fri 03:49:47 PM 48.0924 -121.2696 94° East 476 548 25,000  Level FlightAware ADS-B
Fri 03:49:59 PM 48.0904 -121.2220 93° East 476 548 25,000  Level FlightAware ADS-B
Fri 03:50:24 PM 48.0874 -121.1472 93° East 474 545 25,000  Level FlightAware ADS-B
Fri 03:50:34 PM 48.0859 -121.1090 93° East 475 547 25,000  Level FlightAware ADS-B
Fri 03:50:55 PM 48.0828 -121.0387 95° East 473 544 25,000  Level FlightAware ADS-B
Fri 03:51:08 PM 48.0799 -120.9990 96° East 472 543 25,000  Level FlightAware ADS-B
Fri 03:51:28 PM 48.0752 -120.9374 96° East 484 557 25,000  Level FlightAware ADS-B
Fri 03:51:38 PM 48.0723 -120.8990 96° East 488 562 25,000 150 Level FlightAware ADS-B
Fri 03:52:08 PM 48.0655 -120.7996 96° East 503 579 25,100 176 Climbing FlightAware ADS-B
Fri 03:52:12 PM 48.0644 -120.7840 96° East 504 580 25,100 -154 Level FlightAware ADS-B
Fri 03:52:47 PM 48.0594 -120.7108 96° East 505 581 25,000 -103 Descending FlightAware ADS-B
Fri 03:53:10 PM 48.0509 -120.5830 96° East 504 580 25,000  Level FlightAware ADS-B
Fri 03:53:17 PM 48.0496 -120.5614 95° East 503 579 25,000  Level FlightAware ADS-B
Fri 03:53:55 PM 48.0405 -120.4270 96° East 504 580 25,000 86 Level FlightAware ADS-B
Fri 03:54:27 PM 48.0328 -120.3160 96° East 501 577 25,100  Climbing FlightAware ADS-B
Fri 03:55:02 PM 48.0245 -120.1970 96° East 496 571 25,000 -91 Descending FlightAware ADS-B
Fri 03:55:33 PM 48.0177 -120.0920 95° East 502 578 25,000  Level FlightAware ADS-B
Fri 03:56:03 PM 48.0110 -119.9890 95° East 501 577 25,000  Level FlightAware ADS-B
Fri 03:56:50 PM 48.0003 -119.8260 95° East 503 579 25,000  Level FlightAware ADS-B
Fri 03:56:59 PM 47.9968 -119.7940 100° East 502 578 25,000  Level FlightAware ADS-B
Fri 03:57:45 PM 47.9732 -119.6400 101° East 502 578 25,000  Level FlightAware ADS-B
Fri 03:58:33 PM 47.9139 -119.5080 101° East 502 578 25,000  Level FlightAware ADS-B
Fri 03:58:41 PM 47.8996 -119.4980 150° Southeast 500 575 25,000  Level FlightAware ADS-B
Fri 03:58:52 PM 47.8736 -119.4870 167° South 505 581 25,000  Level FlightAware ADS-B
Fri 03:59:19 PM 47.8103 -119.4720 171° South 508 585 25,000  Level FlightAware ADS-B
Fri 04:03:30 PM 47.2208 -119.3080 171° South 524 603 25,000 546 Level FlightAware ADS-B
Fri 04:08:17 PM 46.5674 -119.1785 199° South 460 529 29,900 882 Climbing FlightAware ADS-B (KPFC)
Fri 04:09:10 PM 46.4610 -119.2363 200° South 465 535 30,000 32 Climbing FlightAware ADS-B (KPFC)
Fri 04:11:25 PM 46.1863 -119.3745 203° Southwest 474 545 30,000  Level FlightAware ADS-B (KPFC)
Fri 04:13:05 PM 45.9726 -119.4913 200° South 495 570 30,000  Level FlightAware ADS-B (KPFC)
Fri 04:14:01 PM 45.8514 -119.5540 200° South 508 585 30,000  Level FlightAware ADS-B (KBOI)
Fri 04:14:30 PM 45.7830 -119.5891 200° South 512 589 30,000  Level FlightAware ADS-B (KBOI)
Fri 04:14:41 PM 45.7593 -119.6014 200° South 515 593 30,000  Level FlightAware ADS-B (KPFC)
Fri 04:15:00 PM 45.7181 -119.6226 200° South 516 594 30,000  Level FlightAware ADS-B (KBOI)
Fri 04:15:15 PM 45.6827 -119.6407 200° South 514 592 30,000  Level FlightAware ADS-B (KPFC)
Fri 04:15:39 PM 45.6324 -119.6665 200° South 511 588 30,000 -98 Level FlightAware ADS-B (KBOI)
Fri 04:16:16 PM 45.5504 -119.7087 200° South 509 586 29,900  Descending FlightAware ADS-B (KBOI)
Fri 04:16:24 PM 45.5287 -119.7200 200° South 511 588 30,000 133 Climbing FlightAware ADS-B (KPFC)
Fri 04:17:01 PM 45.4503 -119.7624 202° Southwest 510 587 30,000  Level FlightAware ADS-B (KBOI)
Fri 04:17:07 PM 45.4349 -119.7709 202° Southwest 503 579 30,000  Level FlightAware ADS-B (KPFC)
Fri 04:17:31 PM 45.3863 -119.7983 202° Southwest 508 585 30,000  Level FlightAware ADS-B (KBOI)
Fri 04:17:40 PM 45.3636 -119.8113 202° Southwest 501 577 30,000  Level FlightAware ADS-B (KPFC)
Fri 04:18:01 PM 45.3177 -119.8376 202° Southwest 503 579 30,000  Level FlightAware ADS-B (KBOI)
Fri 04:18:20 PM 45.2757 -119.8584 198° South 510 587 30,000 171 Level FlightAware ADS-B (KPFC)
Fri 04:18:36 PM 45.2408 -119.8735 197° South 515 593 30,100  Climbing FlightAware ADS-B (KBOI)
Fri 04:18:59 PM 45.1850 -119.8978 197° South 520 598 30,000 -122 Descending FlightAware ADS-B (KPFC)
Fri 04:19:25 PM 45.1657 -119.9065 198° South 523 602 30,000  Level FlightAware ADS-B (KBOI)
Fri 04:19:35 PM 45.1025 -119.9358 199° South 511 588 30,000  Level FlightAware ADS-B (KPFC)
Fri 04:20:10 PM 45.0250 -119.9743 199° South 508 585 30,000  Level FlightAware ADS-B (KPFC)
Fri 04:20:16 PM 45.0219 -119.9759 200° South 511 588 30,000  Level FlightAware ADS-B (KBOI)
Fri 04:21:10 PM 44.8921 -120.0425 199° South 508 585 30,000  Level FlightAware ADS-B (KPFC)
Fri 04:21:16 PM 44.8824 -120.0477 201° Southwest 512 589 30,000  Level FlightAware ADS-B (KBOI)
Fri 04:21:46 PM 44.8157 -120.0831 201° Southwest 513 590 30,000 167 Level FlightAware ADS-B (KBOI)
Fri 04:21:52 PM 44.7987 -120.0920 199° South 508 585 30,100  Climbing FlightAware ADS-B (KPFC)
Fri 04:22:21 PM 44.7349 -120.1232 199° South 527 606 30,000 -81 Descending FlightAware ADS-B (KBOI)
Fri 04:23:06 PM 44.6383 -120.1674 199° South 526 605 30,000  Level FlightAware ADS-B (KBOI)
Fri 04:23:08 PM 44.6250 -120.1735 199° South 508 585 30,000  Level FlightAware ADS-B (KPFC)
Fri 04:23:36 PM 44.5613 -120.2036 200° South 522 601 30,000 154 Level FlightAware ADS-B (KBOI)
Fri 04:23:47 PM 44.5349 -120.2168 200° South 515 593 30,100 343 Climbing FlightAware ADS-B (KPFC)
Fri 04:24:11 PM 44.4803 -120.2438 200° South 523 602 30,200 111 Climbing FlightAware ADS-B (KBOI)
Fri 04:24:41 PM 44.4133 -120.2770 200° South 519 597 30,200 -197 Level FlightAware ADS-B (KBOI)
Fri 04:25:12 PM 44.3421 -120.3123 200° South 519 597 30,000 -235 Descending FlightAware ADS-B (KBDN)
Fri 04:25:32 PM 44.2973 -120.3346 200° South 520 598 30,000  Level FlightAware ADS-B (KBOI)
Fri 04:25:47 PM 44.2624 -120.3521 200° South 521 600 30,000 800 Level FlightAware ADS-B (KBDN)
Fri 04:26:02 PM 44.2295 -120.3686 200° South 514 592 30,400 1,500 Climbing FlightAware ADS-B (KBOI)
Fri 04:26:19 PM 44.2000 -120.3833 200° South 512 589 30,800 1,241 Climbing FlightAware ADS-B (KBDN)
Fri 04:26:31 PM 44.1635 -120.4015 200° South 511 588 31,000 387 Climbing FlightAware ADS-B (KBOI)
Fri 04:26:50 PM 44.1411 -120.4125 199° South 517 595 31,000 -514 Level FlightAware ADS-B (KBDN)
Fri 04:27:06 PM 44.0868 -120.4390 200° South 524 603 30,700 -1,600 Descending FlightAware ADS-B (KBOI)
Fri 04:27:20 PM 44.0519 -120.4562 200° South 527 606 30,200 -1,800 Descending FlightAware ADS-B (KBDN)
Fri 04:27:36 PM 44.0160 -120.4739 200° South 529 609 29,800 146 Descending FlightAware ADS-B (KBOI)
Fri 04:28:01 PM 43.9580 -120.5024 200° South 510 587 30,300 1,500 Climbing FlightAware ADS-B (KPFC)
Fri 04:28:36 PM 43.8817 -120.5384 199° South 505 581 31,300 1,625 Climbing FlightAware ADS-B (KBOI)
Fri 04:28:49 PM 43.8555 -120.5504 198° South 506 582 31,600 1,000 Climbing FlightAware ADS-B (KBDN)
Fri 04:29:06 PM 43.8310 -120.5615 199° South 504 580 31,800 462 Climbing FlightAware ADS-B (KBOI)
Fri 04:29:28 PM 43.7655 -120.5914 198° South 511 588 31,900 -203 Climbing FlightAware ADS-B (KPFC)
Fri 04:30:05 PM 43.6840 -120.6290 199° South 521 600 31,600 -805 Descending FlightAware ADS-B (KBOI)
Fri 04:30:50 PM 43.5774 -120.6777 198° South 527 606 30,800 -940 Descending FlightAware ADS-B (KPFC)
Fri 04:31:28 PM 43.4902 -120.7165 198° South 527 606 30,300 -889 Descending FlightAware ADS-B (KBDN)
Fri 04:31:44 PM 43.4562 -120.7315 198° South 528 608 30,000 218 Descending FlightAware ADS-B (KBDN)
Fri 04:32:23 PM 43.3634 -120.7758 200° South 511 588 30,500 1,948 Climbing FlightAware ADS-B (KPFC)
Fri 04:34:18 PM 43.1218 -120.8935 200° South 448 516 35,000 1,725 Climbing FlightAware ADS-B (KPFC)
Fri 04:34:56 PM 43.0458 -120.9291 199° South 445 512 34,900  Descending FlightAware ADS-B (KPFC)
Fri 04:35:38 PM 42.9634 -120.9650 198° South 442 509 35,000 74 Climbing FlightAware ADS-B (KPFC)
Fri 04:36:17 PM 42.8868 -120.9968 197° South 441 507 35,000  Level FlightAware ADS-B (KPFC)
Fri 04:36:51 PM 42.8189 -121.0254 198° South 443 510 35,000 48 Level FlightAware ADS-B (KPFC)
Fri 04:38:21 PM 42.6363 -121.1071 199° South 463 533 35,100  Climbing FlightAware ADS-B (KPFC)
Fri 04:39:03 PM 42.5485 -121.1487 199° South 476 548 35,000 -65 Descending FlightAware ADS-B (KPFC)
Fri 04:39:53 PM 42.4470 -121.1974 200° South 466 536 35,000  Level FlightAware ADS-B (KPFC)
Fri 04:40:31 PM 42.3685 -121.2349 200° South 465 535 35,000 64 Level FlightAware ADS-B (KPFC)
Fri 04:41:27 PM 42.2506 -121.2905 200° South 480 552 35,100 53 Climbing FlightAware ADS-B (KPFC)
Fri 04:42:25 PM 42.1319 -121.3492 201° Southwest 478 550 35,100 -36 Level FlightAware ADS-B (KPFC)
Fri 04:44:12 PM 41.9052 -121.4611 201° Southwest 478 550 35,000 197 Descending FlightAware ADS-B (KPFC)
Fri 04:49:01 PM 41.2814 -121.7318 196° South 481 554 36,400 70 Climbing FlightAware ADS-B
Fri 04:49:55 PM 41.2020 -121.7615 196° South 504 580 35,400 -821 Descending FlightAware ADS-B
Fri 04:50:36 PM 41.0739 -121.8111 197° South 503 579 35,100 -506 Descending FlightAware ADS-B
Fri 04:51:18 PM 40.9782 -121.8495 197° South 508 585 34,700 578 Descending FlightAware ADS-B
Fri 04:51:59 PM 40.8891 -121.8856 197° South 483 556 35,900 1,355 Climbing FlightAware ADS-B
Fri 04:52:20 PM 40.8522 -121.8978 184° South 489 563 36,100  Climbing FlightAware ADS-B
Fri 04:53:00 PM 40.7627 -121.8474 133° Southeast 521 600 35,900 -300 Descending FlightAware ADS-B
Fri 04:53:20 PM 40.7509 -121.8224 103° East 537 618 35,800  Descending FlightAware ADS-B
Fri 04:53:39 PM 40.7393 -121.7502 82° East 543 625 35,900 308 Climbing FlightAware ADS-B
Fri 04:53:59 PM 40.7462 -121.6951 65° Northeast 545 627 36,000 207 Climbing FlightAware ADS-B
Fri 04:54:37 PM 40.7981 -121.5665 53° Northeast 545 627 36,100 102 Climbing FlightAware ADS-B
Fri 04:54:58 PM 40.8394 -121.5080 37° Northeast 543 625 36,100  Level FlightAware ADS-B
Fri 04:55:37 PM 40.9181 -121.4637 17° North 535 616 36,100 -815 Level FlightAware ADS-B
Fri 04:56:19 PM 41.0326 -121.4198 16° North 554 638 35,000 -450 Descending FlightAware ADS-B
Fri 04:56:57 PM 41.1215 -121.3850 17° North 537 618 35,500 1,011 Climbing FlightAware ADS-B
Fri 04:57:48 PM 41.2231 -121.3411 17° North 542 624 36,500 792 Climbing Oakland Center
Fri 04:58:43 PM 41.3592 -121.2797 19° North 521 600 36,900 14 Climbing Seattle Center
Fri 05:05:00 PM 42.2480 -121.0319 19° North 516 594 36,600 -30 Descending FlightAware ADS-B (KPFC)
Fri 05:05:20 PM 42.2944 -121.0355 356° North 512 589 36,700 250 Climbing FlightAware ADS-B (KPFC)
Fri 05:06:12 PM 42.4184 -121.0403 358° North 502 578 36,900 58 Climbing FlightAware ADS-B (KPFC)
Fri 05:07:04 PM 42.5406 -121.0451 358° North 502 578 36,800 -391 Descending FlightAware ADS-B (KPFC)
Fri 05:07:44 PM 42.6356 -121.0499 358° North 514 592 36,300 -1,355 Descending FlightAware ADS-B (KPFC)
Fri 05:08:37 PM 42.7645 -121.0584 357° North 533 613 34,700 -1,451 Descending FlightAware ADS-B (KPFC)
Fri 05:09:15 PM 42.8576 -121.0660 356° North 529 609 34,100 -494 Descending FlightAware ADS-B (KPFC)
Fri 05:10:02 PM 42.9711 -121.0780 356° North 517 595 34,000 367 Descending FlightAware ADS-B (KPFC)
Fri 05:10:53 PM 43.0940 -121.0832 North 516 594 34,700 645 Climbing FlightAware ADS-B (KPFC)
Fri 05:11:35 PM 43.1929 -121.0791 North 515 593 35,000 845 Climbing FlightAware ADS-B (KPFC)
Fri 05:12:04 PM 43.2614 -121.0618 16° North 516 594 35,700 2,400 Climbing FlightAware ADS-B (KPFC)
Fri 05:12:30 PM 43.3174 -121.0294 28° Northeast 496 571 37,200 2,687 Climbing FlightAware ADS-B (KPFC)
Fri 05:13:11 PM 43.3951 -120.9650 31° Northeast 491 565 38,700 1,403 Climbing FlightAware ADS-B (KPFC)
Fri 05:13:47 PM 43.4616 -120.9094 32° Northeast 473 544 39,000 522 Climbing FlightAware ADS-B (KPFC)
Fri 05:14:20 PM 43.5224 -120.8582 32° Northeast 470 541 39,300 348 Climbing FlightAware ADS-B (KPFC)
Fri 05:14:56 PM 43.5888 -120.8020 31° Northeast 472 543 39,400 154 Climbing FlightAware ADS-B (KBOI)
Fri 05:14:59 PM 43.5955 -120.7964 32° Northeast 473 544 39,400 -343 Level FlightAware ADS-B (KPFC)
Fri 05:15:31 PM 43.6551 -120.7459 32° Northeast 475 547 39,200 -429 Descending FlightAware ADS-B (KPFC)
Fri 05:15:41 PM 43.6741 -120.7298 31° Northeast 484 557 39,100 -250 Descending FlightAware ADS-B (KBOI)
Fri 05:16:19 PM 43.7481 -120.6667 32° Northeast 493 567 39,000 -150 Descending FlightAware ADS-B (KPFC)
Fri 05:16:21 PM 43.7509 -120.6644 31° Northeast 492 566 39,000 316 Level FlightAware ADS-B (KBOI)
Fri 05:16:57 PM 43.8203 -120.6052 31° Northeast 494 568 39,200 324 Climbing FlightAware ADS-B (KBOI)
Fri 05:16:58 PM 43.8230 -120.6028 32° Northeast 494 568 39,200  Level FlightAware ADS-B (KPFC)
Fri 05:17:02 PM 43.8293 -120.5975 31° Northeast 494 568 39,200 324 Level FlightAware ADS-B (KBOI)
Fri 05:17:35 PM 43.8860 -120.5490 32° Northeast 495 570 39,400 308 Climbing FlightAware ADS-B (KBDN)
Fri 05:18:20 PM 43.9837 -120.4652 32° Northeast 497 572 39,600 279 Climbing FlightAware ADS-B (KPFC)
Fri 05:19:01 PM 44.0626 -120.3973 31° Northeast 498 573 39,800 295 Climbing FlightAware ADS-B (KBOI)
Fri 05:19:21 PM 44.1017 -120.3635 32° Northeast 499 574 39,900 300 Climbing FlightAware ADS-B (KBDN)
Fri 05:19:41 PM 44.1412 -120.3294 31° Northeast 498 573 40,000 375 Climbing FlightAware ADS-B (KBOI)
Fri 05:19:53 PM 44.1506 -120.3213 32° Northeast 492 566 40,100  Climbing FlightAware ADS-B (KBDN)
Fri 05:20:27 PM 44.2136 -120.2668 32° Northeast 481 554 40,000 107 Descending FlightAware ADS-B (KBOI)
Fri 05:20:49 PM 44.2714 -120.2166 32° Northeast 474 545 40,200 207 Climbing FlightAware ADS-B (KPFC)
Fri 05:21:25 PM 44.3288 -120.1677 31° Northeast 475 547 40,200 -128 Level FlightAware ADS-B (KBDN)
Fri 05:21:36 PM 44.3563 -120.1447 30° Northeast 475 547 40,100 -158 Descending FlightAware ADS-B (KBOI)
Fri 05:22:03 PM 44.4100 -120.1007 31° Northeast 471 542 40,100 -94 Level FlightAware ADS-B (KPFC)
Fri 05:22:40 PM 44.4811 -120.0443 29° Northeast 474 545 40,000  Descending FlightAware ADS-B (KPFC)
Fri 05:22:50 PM 44.4842 -120.0420 28° Northeast 473 544 40,100 -429 Climbing FlightAware ADS-B (KBOI)
Fri 05:23:36 PM 44.5877 -119.9633 28° Northeast 483 556 39,600 -442 Descending FlightAware ADS-B (KBOI)
Fri 05:24:25 PM 44.6868 -119.8847 30° Northeast 497 572 39,400 -72 Descending FlightAware ADS-B (KBOI)
Fri 05:24:59 PM 44.7498 -119.8338 29° Northeast 502 578 39,500 185 Climbing FlightAware ADS-B (KBOI)
Fri 05:25:30 PM 44.8135 -119.7825 30° Northeast 500 575 39,600 450 Climbing FlightAware ADS-B (KBOI)
Fri 05:25:39 PM 44.8338 -119.7654 32° Northeast 494 568 39,800 667 Climbing FlightAware ADS-B (KPFC)
Fri 05:25:57 PM 44.8678 -119.7340 33° Northeast 501 577 39,900 -120 Climbing FlightAware ADS-B (KBOI)
Fri 05:26:29 PM 44.9232 -119.6816 33° Northeast 505 581 39,700 -353 Descending FlightAware ADS-B (KBOI)
Fri 05:26:31 PM 44.9349 -119.6708 34° Northeast 508 585 39,700 343 Level FlightAware ADS-B (KPFC)
Fri 05:27:04 PM 45.0004 -119.6092 34° Northeast 507 583 39,900 133 Climbing FlightAware ADS-B (KPFC)
Fri 05:27:16 PM 45.0223 -119.5887 33° Northeast 506 582 39,800 -143 Descending FlightAware ADS-B (KBOI)
Fri 05:27:46 PM 45.0811 -119.5340 33° Northeast 502 578 39,800  Level FlightAware ADS-B (KBOI)
Fri 05:28:03 PM 45.1135 -119.4984 43° Northeast 509 586 39,800 200 Level FlightAware ADS-B (KPFC)
Fri 05:28:16 PM 45.1316 -119.4715 50° Northeast 513 590 39,900 300 Climbing FlightAware ADS-B (KBOI)
Fri 05:28:23 PM 45.1435 -119.4487 56° Northeast 516 594 39,900  Level FlightAware ADS-B (KPFC)
Fri 05:28:37 PM 45.1592 -119.4093 64° Northeast 519 597 39,900 182 Level FlightAware ADS-B (KBOI)
Fri 05:28:56 PM 45.1727 -119.3453 80° East 523 602 40,000 154 Climbing FlightAware ADS-B (KBOI)
Fri 05:29:16 PM 45.1736 -119.2774 96° East 529 609 40,000  Level FlightAware ADS-B (KBOI)
Fri 05:29:36 PM 45.1633 -119.2163 110° East 530 610 40,000  Level FlightAware ADS-B (KBOI)
Fri 05:29:51 PM 45.1445 -119.1672 126° Southeast 529 609 40,000  Level FlightAware ADS-B (KPFC)
Fri 05:30:03 PM 45.1241 -119.1358 141° Southeast 525 604 40,000 -240 Level FlightAware ADS-B (KPFC)
Fri 05:30:16 PM 45.0996 -119.1115 150° Southeast 521 600 39,900 -261 Descending FlightAware ADS-B (KBOI)
Fri 05:30:26 PM 45.0782 -119.0980 160° South 516 594 39,900  Level FlightAware ADS-B (KBOI)
Fri 05:30:29 PM 45.0686 -119.0938 166° South 514 592 39,900 -214 Level FlightAware ADS-B (KPFC)
Fri 05:30:54 PM 45.0098 -119.0879 187° South 502 578 39,800  Descending FlightAware ADS-B (KBOI)
Fri 05:31:22 PM 44.9496 -119.1155 206° Southwest 484 557 39,900 148 Climbing FlightAware ADS-B (KPFC)
Fri 05:32:15 PM 44.8439 -119.1871 207° Southwest 491 565 40,000 -119 Climbing FlightAware ADS-B (KBOI)
Fri 05:33:03 PM 44.7454 -119.2572 207° Southwest 491 565 39,700 66 Descending FlightAware ADS-B (KBOI)
Fri 05:33:46 PM 44.6613 -119.3179 208° Southwest 483 556 40,100 273 Climbing FlightAware ADS-B (KBOI)
Fri 05:34:31 PM 44.5997 -119.3614 207° Southwest 491 565 40,100 -240 Level FlightAware ADS-B (KBOI)
Fri 05:35:01 PM 44.5080 -119.4261 207° Southwest 493 567 39,800 -200 Descending FlightAware ADS-B (KBOI)
Fri 05:35:31 PM 44.4523 -119.4650 207° Southwest 491 565 39,900  Climbing FlightAware ADS-B (KBOI)
Fri 05:35:46 PM 44.4157 -119.4901 206° Southwest 483 556 39,800 -111 Descending FlightAware ADS-B (KPFC)
Fri 05:36:25 PM 44.3408 -119.5398 206° Southwest 488 562 39,800 250 Level FlightAware ADS-B (KBOI)
Fri 05:36:34 PM 44.3170 -119.5558 206° Southwest 482 555 40,000 968 Climbing FlightAware ADS-B (KPFC)
Fri 05:36:56 PM 44.2758 -119.5854 209° Southwest 473 544 40,300 833 Climbing FlightAware ADS-B (KBOI)
Fri 05:37:10 PM 44.2482 -119.6062 208° Southwest 472 543 40,500 171 Climbing FlightAware ADS-B (KPFC)
Fri 05:38:41 PM 44.0705 -119.7348 208° Southwest 469 540 40,600 -397 Climbing FlightAware ADS-B (KPFC)
Fri 05:39:41 PM 43.9514 -119.8193 209° Southwest 472 543 39,500 -667 Descending FlightAware ADS-B (KBOI)
Fri 05:40:02 PM 43.9092 -119.8495 208° Southwest 469 540 39,700 240 Climbing FlightAware ADS-B (KPFC)
Fri 05:40:06 PM 43.9358 -119.8304 209° Southwest 472 543 39,600 364 Descending FlightAware ADS-B (KBOI)
Fri 05:40:35 PM 43.8426 -119.8958 207° Southwest 470 541 39,900 468 Climbing FlightAware ADS-B (KPFC)
Fri 05:41:23 PM 43.7472 -119.9603 206° Southwest 467 537 40,200 222 Climbing FlightAware ADS-B (KPFC)
Fri 05:42:23 PM 43.6319 -120.0079 182° South 497 572 40,300  Climbing FlightAware ADS-B (KBOI)
Fri 05:42:29 PM 43.6078 -120.0067 176° South 497 572 40,200 -1,737 Descending FlightAware ADS-B (KPFC)
Fri 05:43:01 PM 43.5319 -119.9998 176° South 524 603 39,200 -1,500 Descending FlightAware ADS-B (KBOI)
Fri 05:43:17 PM 43.4923 -119.9963 176° South 513 590 39,000 343 Descending FlightAware ADS-B (KPFC)
Fri 05:43:36 PM 43.4509 -119.9925 175° South 512 589 39,400 968 Climbing FlightAware ADS-B (KBOI)
Fri 05:43:48 PM 43.4193 -119.9890 175° South 503 579 39,500 600 Climbing FlightAware ADS-B (KPFC)
Fri 05:44:06 PM 43.3777 -119.9844 175° South 505 581 39,700 625 Climbing FlightAware ADS-B (KBOI)
Fri 05:44:36 PM 43.3091 -119.9768 175° South 500 575 40,000 621 Climbing FlightAware ADS-B (KBOI)
Fri 05:45:04 PM 43.2434 -119.9734 175° South 503 579 40,300 581 Climbing FlightAware ADS-B (KPFC)
Fri 05:45:07 PM 43.2420 -119.9734 175° South 494 568 40,300 -194 Level FlightAware ADS-B (KBOI)
Fri 05:45:35 PM 43.1725 -119.9570 169° South 505 581 40,200 -1,080 Descending FlightAware ADS-B (KBOI)
Fri 05:45:57 PM 43.1203 -119.9435 170° South 494 568 39,400 -2,308 Descending FlightAware ADS-B (KPFC)
Fri 05:46:01 PM 43.1141 -119.9419 169° South 523 602 39,200 -1,149 Descending FlightAware ADS-B (KBOI)
Fri 05:46:44 PM 43.0096 -119.9146 170° South 494 568 38,500 -933 Descending FlightAware ADS-B (KPFC)
Fri 05:46:46 PM 43.0039 -119.9130 168° South 526 605 38,500 -486 Level FlightAware ADS-B (KBOI)
Fri 05:47:21 PM 42.9249 -119.8914 168° South 525 604 38,200 -370 Descending FlightAware ADS-B (KBOI)
Fri 05:48:07 PM 42.8163 -119.8623 169° South 518 596 38,000 -152 Descending FlightAware ADS-B (KBOI)
Fri 05:48:40 PM 42.7369 -119.8419 169° South 511 588 38,000  Level FlightAware ADS-B (KBOI)
Fri 05:49:11 PM 42.6718 -119.8249 165° South 501 577 38,000  Level FlightAware ADS-B (KBOI)
Fri 05:49:50 PM 42.5916 -119.7531 122° Southeast 530 610 38,000  Level FlightAware ADS-B (KBOI)
Fri 05:50:11 PM 42.5726 -119.6876 102° East 537 618 38,000  Level FlightAware ADS-B (KBOI)
Fri 05:50:51 PM 42.5741 -119.5581 71° East 541 623 38,000  Level FlightAware ADS-B (KBOI)
Fri 05:51:12 PM 42.5995 -119.4906 53° Northeast 534 615 38,000  Level FlightAware ADS-B (KBOI)
Fri 05:51:31 PM 42.6327 -119.4460 37° Northeast 523 602 38,000  Level FlightAware ADS-B (KBOI)
Fri 05:51:52 PM 42.6759 -119.4151 20° North 509 586 38,000  Level FlightAware ADS-B (KBOI)
Fri 05:52:10 PM 42.7158 -119.4037 North 495 570 38,000  Level FlightAware ADS-B (KBOI)
Fri 05:52:30 PM 42.7520 -119.4049 353° North 485 558 38,000  Level FlightAware ADS-B (KBOI)
Fri 05:52:40 PM 42.7822 -119.4146 342° North 476 548 38,000  Level FlightAware ADS-B (KBOI)
Fri 05:53:01 PM 42.8246 -119.4442 325° Northwest 464 534 38,000  Level FlightAware ADS-B (KBOI)
Fri 05:53:41 PM 42.8932 -119.5143 324° Northwest 465 535 38,000  Level FlightAware ADS-B (KBOI)
Fri 05:54:11 PM 42.9312 -119.5527 324° Northwest 465 535 38,000  Level FlightAware ADS-B (KBOI)
Fri 05:54:41 PM 42.9976 -119.6201 324° Northwest 463 533 38,000  Level FlightAware ADS-B (KBOI)
Fri 05:55:11 PM 43.0481 -119.6717 324° Northwest 467 537 38,000  Level FlightAware ADS-B (KBOI)
Fri 05:55:30 PM 43.0807 -119.7049 323° Northwest 463 533 38,000  Level FlightAware ADS-B (KPFC)
Fri 05:55:41 PM 43.1012 -119.7259 324° Northwest 468 539 38,000  Level FlightAware ADS-B (KBOI)
Fri 05:56:20 PM 43.1674 -119.7937 323° Northwest 462 532 38,000  Level FlightAware ADS-B (KPFC)
Fri 05:56:26 PM 43.1777 -119.8043 324° Northwest 465 535 38,000  Level FlightAware ADS-B (KBOI)
Fri 05:56:56 PM 43.2280 -119.8560 324° Northwest 467 537 38,000  Level FlightAware ADS-B (KBOI)
Fri 05:57:20 PM 43.2712 -119.9004 323° Northwest 468 539 38,000  Level FlightAware ADS-B (KPFC)
Fri 05:57:26 PM 43.2812 -119.9108 324° Northwest 469 540 38,000  Level FlightAware ADS-B (KBOI)
Fri 05:57:56 PM 43.3332 -119.9644 324° Northwest 470 541 38,000  Level FlightAware ADS-B (KBOI)
Fri 05:57:58 PM 43.3364 -119.9676 323° Northwest 464 534 38,000  Level FlightAware ADS-B (KPFC)
Fri 05:58:26 PM 43.3849 -120.0176 324° Northwest 469 540 38,000  Level FlightAware ADS-B (KBOI)
Fri 05:58:28 PM 43.3890 -120.0219 323° Northwest 467 537 38,000  Level FlightAware ADS-B (KPFC)
Fri 05:58:55 PM 43.4328 -120.0670 323° Northwest 464 534 38,000  Level FlightAware ADS-B (KBOI)
Fri 05:59:12 PM 43.4653 -120.1007 323° Northwest 463 533 38,000  Level FlightAware ADS-B (KPFC)
Fri 05:59:26 PM 43.4884 -120.1248 323° Northwest 461 531 38,000  Level FlightAware ADS-B (KBOI)
Fri 05:59:56 PM 43.5150 -120.1524 324° Northwest 460 529 38,000  Level FlightAware ADS-B (KBOI)
Fri 05:59:59 PM 43.5449 -120.1835 323° Northwest 461 531 38,000  Level FlightAware ADS-B (KPFC)
Fri 06:00:51 PM 43.6312 -120.2734 323° Northwest 459 528 38,000  Level FlightAware ADS-B (KBOI)
Fri 06:00:56 PM 43.6406 -120.2834 322° Northwest 453 521 38,000  Level FlightAware ADS-B (KPFC)
Fri 06:01:26 PM 43.6885 -120.3336 323° Northwest 458 527 38,000  Level FlightAware ADS-B (KBOI)
Fri 06:01:36 PM 43.7081 -120.3541 322° Northwest 452 520 38,000  Level FlightAware ADS-B (KPFC)
Fri 06:01:49 PM 43.7287 -120.3756 323° Northwest 458 527 38,000  Level FlightAware ADS-B (KBOI)
Fri 06:02:08 PM 43.7625 -120.4109 322° Northwest 452 520 38,000  Level FlightAware ADS-B (KPFC)
Fri 06:02:27 PM 43.7908 -120.4407 323° Northwest 458 527 38,000  Level FlightAware ADS-B (KBOI)
Fri 06:02:51 PM 43.8332 -120.4853 323° Northwest 457 526 38,000  Level FlightAware ADS-B (KBOI)
Fri 06:03:12 PM 43.8496 -120.5026 323° Northwest 457 526 38,000  Level FlightAware ADS-B (KBDN)
Fri 06:03:26 PM 43.8932 -120.5487 323° Northwest 455 524 38,000  Level FlightAware ADS-B (KBOI)
Fri 06:03:42 PM 43.9203 -120.5773 323° Northwest 455 524 38,000  Level FlightAware ADS-B (KBDN)
Fri 06:03:57 PM 43.9443 -120.6027 323° Northwest 454 522 38,000  Level FlightAware ADS-B (KBOI)
Fri 06:04:20 PM 43.9840 -120.6449 322° Northwest 449 517 38,000  Level FlightAware ADS-B (KPFC)
Fri 06:04:57 PM 44.0433 -120.7078 323° Northwest 454 522 38,000  Level FlightAware ADS-B (KBDN)
Fri 06:05:27 PM 44.0953 -120.7632 323° Northwest 455 524 38,000  Level FlightAware ADS-B (KBDN)
Fri 06:05:58 PM 44.1473 -120.8186 322° Northwest 454 522 38,000  Level FlightAware ADS-B (KBDN)
Fri 06:06:40 PM 44.2164 -120.8926 322° Northwest 448 516 38,000  Level FlightAware ADS-B (KPFC)
Fri 06:07:12 PM 44.2673 -120.9471 322° Northwest 453 521 38,000  Level FlightAware ADS-B (KBDN)
Fri 06:07:48 PM 44.3302 -121.0148 322° Northwest 453 521 38,000  Level FlightAware ADS-B (KPFC)
Fri 06:08:21 PM 44.3726 -121.0605 322° Northwest 453 521 38,000  Level FlightAware ADS-B (KBDN)
Fri 06:09:00 PM 44.4493 -121.1434 322° Northwest 451 519 38,000  Level FlightAware ADS-B (KPFC)
Fri 06:10:16 PM 44.5737 -121.2785 322° Northwest 449 517 38,000  Level FlightAware ADS-B (KPFC)
Fri 06:10:56 PM 44.6400 -121.3507 322° Northwest 451 519 38,000  Level FlightAware ADS-B (KPFC)
Fri 06:11:28 PM 44.6916 -121.4071 322° Northwest 452 520 38,000  Level FlightAware ADS-B (KPFC)
Fri 06:12:08 PM 44.7580 -121.4800 322° Northwest 452 520 38,000  Level FlightAware ADS-B (KPFC)
Fri 06:12:48 PM 44.8230 -121.5514 322° Northwest 450 518 38,000  Level FlightAware ADS-B (KPFC)
Fri 06:13:28 PM 44.8883 -121.6236 322° Northwest 454 522 38,000  Level FlightAware ADS-B (KPFC)
Fri 06:13:56 PM 44.9349 -121.6750 322° Northwest 456 525 38,000  Level FlightAware ADS-B
Fri 06:14:22 PM 44.9785 -121.7233 321° Northwest 453 521 38,000  Level FlightAware ADS-B (KPFC)
Fri 06:14:26 PM 44.9845 -121.7300 322° Northwest 459 528 38,000  Level FlightAware ADS-B
Fri 06:14:56 PM 45.0353 -121.7860 322° Northwest 461 531 38,000  Level FlightAware ADS-B
Fri 06:15:02 PM 45.0454 -121.7974 321° Northwest 455 524 38,000  Level FlightAware ADS-B (KPFC)
Fri 06:15:27 PM 45.0862 -121.8430 322° Northwest 461 531 38,000  Level FlightAware ADS-B
Fri 06:15:42 PM 45.1122 -121.8719 321° Northwest 455 524 38,000  Level FlightAware ADS-B (KPFC)
Fri 06:15:57 PM 45.1363 -121.8990 322° Northwest 461 531 38,000  Level FlightAware ADS-B
Fri 06:16:22 PM 45.1787 -121.9462 321° Northwest 454 522 38,000  Level FlightAware ADS-B (KPFC)
Fri 06:16:31 PM 45.1947 -121.9640 322° Northwest 461 531 38,000  Level FlightAware ADS-B
Fri 06:16:53 PM 45.2311 -122.0049 321° Northwest 454 522 38,000  Level FlightAware ADS-B (KPFC)
Fri 06:17:02 PM 45.2461 -122.0220 322° Northwest 461 531 38,000  Level FlightAware ADS-B
Fri 06:17:32 PM 45.2960 -122.0780 321° Northwest 458 527 38,000  Level FlightAware ADS-B
Fri 06:17:33 PM 45.2977 -122.0796 322° Northwest 458 527 38,000  Level FlightAware ADS-B (KPFC)
Fri 06:18:03 PM 45.3459 -122.1340 321° Northwest 451 519 38,000  Level FlightAware ADS-B
Fri 06:18:07 PM 45.3531 -122.1421 322° Northwest 450 518 38,000  Level FlightAware ADS-B (KPFC)
Fri 06:18:33 PM 45.3945 -122.1890 321° Northwest 448 516 38,000  Level FlightAware ADS-B
Fri 06:18:47 PM 45.4174 -122.2149 321° Northwest 440 506 38,000  Level FlightAware ADS-B (KPFC)
Fri 06:19:03 PM 45.4429 -122.2440 321° Northwest 446 513 38,000  Level FlightAware ADS-B
Fri 06:19:26 PM 45.4687 -122.2729 322° Northwest 446 513 38,000  Level FlightAware ADS-B (CYVR)
Fri 06:19:33 PM 45.4915 -122.2990 321° Northwest 446 513 38,000  Level FlightAware ADS-B
Fri 06:20:00 PM 45.5344 -122.3474 321° Northwest 438 504 38,000  Level FlightAware ADS-B (KPFC)
Fri 06:20:03 PM 45.5401 -122.3540 321° Northwest 444 511 38,000  Level FlightAware ADS-B
Fri 06:20:34 PM 45.5890 -122.4100 321° Northwest 443 510 38,000  Level FlightAware ADS-B
Fri 06:20:40 PM 45.5989 -122.4210 321° Northwest 444 511 38,000  Level FlightAware ADS-B
Fri 06:21:04 PM 45.6370 -122.4650 321° Northwest 445 512 38,000  Level FlightAware ADS-B
Fri 06:21:11 PM 45.6476 -122.4766 321° Northwest 445 512 38,000  Level FlightAware ADS-B
Fri 06:21:34 PM 45.6854 -122.5200 321° Northwest 445 512 38,000  Level FlightAware ADS-B
Fri 06:21:47 PM 45.7072 -122.5450 322° Northwest 444 511 38,000  Level FlightAware ADS-B
Fri 06:21:53 PM 45.7088 -122.5465 325° Northwest 445 512 38,000  Level FlightAware ADS-B
Fri 06:21:57 PM 45.7234 -122.5610 328° Northwest 446 513 38,000  Level FlightAware ADS-B
Fri 06:22:04 PM 45.7359 -122.5710 331° Northwest 448 516 38,000  Level FlightAware ADS-B
Fri 06:22:18 PM 45.7615 -122.5880 338° Northwest 451 519 38,000  Level FlightAware ADS-B
Fri 06:22:20 PM 45.7662 -122.5906 339° North 445 512 38,000 -600 Level FlightAware ADS-B (KPFC)
Fri 06:22:28 PM 45.7820 -122.5980 343° North 453 521 37,900 -947 Descending FlightAware ADS-B
Fri 06:22:39 PM 45.8047 -122.6060 349° North 451 519 37,700 -1,200 Descending FlightAware ADS-B
Fri 06:22:43 PM 45.8104 -122.6076 350° North 449 517 37,600 -2,800 Descending FlightAware ADS-B
Fri 06:23:09 PM 45.8653 -122.6210 350° North 438 504 36,300 -3,000 Descending FlightAware ADS-B
Fri 06:23:19 PM 45.8849 -122.6257 350° North 438 504 35,800 -3,290 Descending FlightAware ADS-B (KPFC)
Fri 06:23:40 PM 45.9261 -122.6360 350° North 444 511 34,600 -3,600 Descending FlightAware ADS-B
Fri 06:24:04 PM 45.9582 -122.6439 351° North 450 518 33,100 -3,600 Descending FlightAware ADS-B
Fri 06:24:10 PM 45.9874 -122.6510 350° North 452 520 32,800 -3,273 Descending FlightAware ADS-B
Fri 06:24:37 PM 46.0440 -122.6652 350° North 454 522 31,300 -3,400 Descending FlightAware ADS-B (KPFC)
Fri 06:24:40 PM 46.0503 -122.6670 350° North 463 533 31,100 -3,176 Descending FlightAware ADS-B
Fri 06:25:11 PM 46.1158 -122.6840 350° North 473 544 29,500 -2,830 Descending FlightAware ADS-B
Fri 06:25:33 PM 46.1649 -122.6956 350° North 472 543 28,600 -2,400 Descending FlightAware ADS-B (KPFC)
Fri 06:25:41 PM 46.1804 -122.6990 350° North 471 542 28,300 -2,211 Descending FlightAware ADS-B
Fri 06:26:11 PM 46.2444 -122.7160 350° North 466 536 27,200 -2,250 Descending FlightAware ADS-B
Fri 06:26:13 PM 46.2499 -122.7169 350° North 458 527 27,100 -2,200 Descending FlightAware ADS-B (KPFC)
Fri 06:26:41 PM 46.3076 -122.7310 350° North 460 529 26,100 -2,100 Descending FlightAware ADS-B
Fri 06:26:53 PM 46.3342 -122.7381 350° North 457 526 25,700 -2,000 Descending FlightAware ADS-B (KPFC)
Fri 06:27:11 PM 46.3702 -122.7470 350° North 453 521 25,100 -2,229 Descending FlightAware ADS-B
Fri 06:27:28 PM 46.4051 -122.7563 350° North 450 518 24,400 -2,200 Descending FlightAware ADS-B
Fri 06:27:41 PM 46.4325 -122.7630 350° North 449 517 24,000 -2,000 Descending FlightAware ADS-B
Fri 06:28:04 PM 46.4790 -122.7754 350° North 438 504 23,200 -2,200 Descending FlightAware ADS-B (KPFC)
Fri 06:28:11 PM 46.4940 -122.7790 350° North 445 512 22,900 -2,143 Descending FlightAware ADS-B
Fri 06:28:32 PM 46.5346 -122.7890 351° North 440 506 22,200 -2,323 Descending FlightAware ADS-B
Fri 06:28:42 PM 46.5565 -122.7930 356° North 440 506 21,700 -3,000 Descending FlightAware ADS-B
Fri 06:28:44 PM 46.5593 -122.7929 357° North 433 498 21,600 -2,667 Descending FlightAware ADS-B (KPFC)
Fri 06:28:51 PM 46.5752 -122.7930 North 440 506 21,300 -2,700 Descending FlightAware ADS-B
Fri 06:29:04 PM 46.6011 -122.7910 North 437 503 20,700 -2,500 Descending FlightAware ADS-B
Fri 06:29:15 PM 46.6214 -122.7870 10° North 435 501 20,300 -2,341 Descending FlightAware ADS-B
Fri 06:29:45 PM 46.6799 -122.7670 13° North 427 491 19,100 -2,516 Descending FlightAware ADS-B
Fri 06:29:46 PM 46.6819 -122.7663 13° North 426 490 19,000 -2,600 Descending FlightAware ADS-B (KPFC)
Fri 06:30:15 PM 46.7372 -122.7470 13° North 421 484 17,800 -2,647 Descending FlightAware ADS-B
Fri 06:30:20 PM 46.7455 -122.7445 13° North 420 483 17,500 -2,400 Descending FlightAware ADS-B
Fri 06:30:45 PM 46.7946 -122.7280 13° North 423 487 16,600 -2,045 Descending FlightAware ADS-B
Fri 06:31:04 PM 46.8207 -122.7187 13° North 417 480 16,000 -2,000 Descending FlightAware ADS-B
Fri 06:31:15 PM 46.8518 -122.7080 13° North 414 476 15,600 -1,953 Descending FlightAware ADS-B
Fri 06:31:47 PM 46.9108 -122.6880 13° North 400 460 14,600 -1,833 Descending FlightAware ADS-B (KPFC)
Fri 06:31:51 PM 46.9167 -122.6860 13° North 412 474 14,500 -2,000 Descending FlightAware ADS-B
Fri 06:32:17 PM 46.9639 -122.6702 13° North 400 460 13,600 -2,200 Descending FlightAware ADS-B
Fri 06:32:21 PM 46.9714 -122.6680 13° North 399 459 13,400 -1,200 Descending FlightAware ADS-B
Fri 06:32:47 PM 47.0170 -122.6517 13° North 379 436 13,000 -800 Descending FlightAware ADS-B (KPFC)
Fri 06:32:51 PM 47.0245 -122.6490 13° North 375 432 13,000 -545 Level FlightAware ADS-B
Fri 06:33:20 PM 47.0712 -122.6331 13° North 352 405 12,700 -581 Descending FlightAware ADS-B
Fri 06:33:22 PM 47.0744 -122.6320 13° North 351 404 12,700 -545 Level FlightAware ADS-B
Fri 06:33:42 PM 47.1059 -122.6211 14° North 328 377 12,500 -581 Descending FlightAware ADS-B (KPFC)
Fri 06:33:53 PM 47.1220 -122.6160 13° North 328 377 12,400 -439 Descending FlightAware ADS-B
Fri 06:34:23 PM 47.1650 -122.6010 13° North 307 353 12,200 -436 Descending FlightAware ADS-B
Fri 06:34:48 PM 47.1988 -122.5890 14° North 297 342 12,000 -545 Descending FlightAware ADS-B
Fri 06:34:56 PM 47.2095 -122.5840 20° North 295 339 11,900 -857 Descending FlightAware ADS-B
Fri 06:35:02 PM 47.2171 -122.5800 24° Northeast 293 337 11,800 -1,000 Descending FlightAware ADS-B
Fri 06:35:08 PM 47.2113 -122.5832 28° Northeast 292 336 11,700 -1,333 Descending FlightAware ADS-B (CYVR)
Fri 06:35:11 PM 47.2268 -122.5720 30° Northeast 291 335 11,600 -1,200 Descending FlightAware ADS-B
Fri 06:35:18 PM 47.2358 -122.5630 35° Northeast 290 334 11,500 -1,000 Descending FlightAware ADS-B
Fri 06:35:29 PM 47.2467 -122.5500 42° Northeast 289 333 11,300 -1,333 Descending FlightAware ADS-B
Fri 06:35:45 PM 47.2613 -122.5311 41° Northeast 287 330 10,900 -1,273 Descending FlightAware ADS-B
Fri 06:36:02 PM 47.2794 -122.5080 41° Northeast 284 327 10,600 -1,050 Descending FlightAware ADS-B
Fri 06:36:25 PM 47.2980 -122.4838 41° Northeast 276 318 10,200 -960 Descending FlightAware ADS-B
Fri 06:36:27 PM 47.3042 -122.4760 41° Northeast 276 318 10,200 -1,200 Level FlightAware ADS-B
Fri 06:36:35 PM 47.3119 -122.4670 34° Northeast 273 314 10,000 -1,091 Descending FlightAware ADS-B
Fri 06:36:38 PM 47.3154 -122.4640 28° Northeast 271 312 10,000 -857 Level FlightAware ADS-B
Fri 06:36:42 PM 47.3192 -122.4620 22° Northeast 269 310 9,900 -857 Descending FlightAware ADS-B
Fri 06:36:45 PM 47.3235 -122.4600 16° North 266 306 9,900  Level FlightAware ADS-B
Fri 06:36:49 PM 47.3276 -122.4590 10° North 266 306 9,900  Level FlightAware ADS-B
Fri 06:36:54 PM 47.3338 -122.4580 North 268 308 9,900  Level FlightAware ADS-B
Fri 06:36:56 PM 47.3338 -122.4581 North 267 307 9,900 -1,000 Level FlightAware ADS-B
Fri 06:37:00 PM 47.3421 -122.4580 North 266 306 9,800 -1,200 Descending FlightAware ADS-B
Fri 06:37:06 PM 47.3488 -122.4580 359° North 266 306 9,700 -1,412 Descending FlightAware ADS-B
Fri 06:37:17 PM 47.3581 -122.4581 359° North 262 302 9,400 -1,600 Descending FlightAware ADS-B
Fri 06:37:21 PM 47.3675 -122.4580 358° North 261 300 9,300 -947 Descending FlightAware ADS-B
Fri 06:37:36 PM 47.3855 -122.4590 359° North 252 290 9,100 -750 Descending FlightAware ADS-B
Fri 06:37:37 PM 47.3829 -122.4591 359° North 250 288 9,100 -1,333 Level FlightAware ADS-B
Fri 06:37:54 PM 47.4051 -122.4600 359° North 240 276 8,700 -1,714 Descending FlightAware ADS-B
Fri 06:38:05 PM 47.4170 -122.4600 358° North 236 272 8,300 -2,211 Descending FlightAware ADS-B
Fri 06:38:13 PM 47.4226 -122.4606 358° North 232 267 8,000 -2,000 Descending FlightAware ADS-B
Fri 06:38:20 PM 47.4335 -122.4610 358° North 229 264 7,800 -1,800 Descending FlightAware ADS-B
Fri 06:38:33 PM 47.4468 -122.4616 359° North 222 255 7,400 -2,000 Descending FlightAware ADS-B
Fri 06:38:35 PM 47.4493 -122.4620 359° North 221 254 7,300 -1,333 Descending FlightAware ADS-B
Fri 06:38:51 PM 47.4651 -122.4620 359° North 219 252 7,000 -1,412 Descending FlightAware ADS-B
Fri 06:38:52 PM 47.4645 -122.4621 359° North 218 251 6,900 -2,000 Descending FlightAware ADS-B
Fri 06:39:00 PM 47.4749 -122.4620 359° North 214 246 6,700 -1,895 Descending FlightAware ADS-B
Fri 06:39:11 PM 47.4856 -122.4630 359° North 211 243 6,300 -2,000 Descending FlightAware ADS-B
Fri 06:39:24 PM 47.4972 -122.4630 358° North 208 239 5,900 -2,118 Descending FlightAware ADS-B
Fri 06:39:28 PM 47.5018 -122.4633 358° North 207 238 5,700 -2,000 Descending FlightAware ADS-B
Fri 06:39:39 PM 47.5120 -122.4640 358° North 207 238 5,400 -2,100 Descending FlightAware ADS-B
Fri 06:39:48 PM 47.5131 -122.4640 358° North 207 238 5,000 -2,500 Descending FlightAware ADS-B
Fri 06:39:51 PM 47.5238 -122.4650 358° North 208 239 4,900 -2,333 Descending FlightAware ADS-B
Fri 06:40:06 PM 47.5384 -122.4650 359° North 208 239 4,300 -2,118 Descending FlightAware ADS-B
Fri 06:40:08 PM 47.5384 -122.4650 360° North 207 238 4,300 -2,000 Level FlightAware ADS-B
Fri 06:40:12 PM 47.5442 -122.4650 North 206 237 4,100 -1,875 Descending FlightAware ADS-B
Fri 06:40:24 PM 47.5548 -122.4650 North 205 236 3,800 -2,000 Descending FlightAware ADS-B
Fri 06:40:27 PM 47.5582 -122.4650 359° North 204 235 3,600 -2,250 Descending FlightAware ADS-B
Fri 06:40:32 PM 47.5621 -122.4650 353° North 203 234 3,500 -1,636 Descending FlightAware ADS-B
Fri 06:40:38 PM 47.5676 -122.4670 344° North 199 229 3,300 -2,500 Descending FlightAware ADS-B
Fri 06:40:44 PM 47.5730 -122.4710 338° Northwest 199 229 3,000 -2,571 Descending FlightAware ADS-B
Fri 06:40:45 PM 47.5741 -122.4711 337° Northwest 199 229 3,000 -2,250 Level FlightAware ADS-B
Fri 06:40:52 PM 47.5799 -122.4750 333° Northwest 199 229 2,700 -2,211 Descending FlightAware ADS-B
Fri 06:41:04 PM 47.5899 -122.4830 331° Northwest 206 237 2,300 -1,125 Descending FlightAware ADS-B
Fri 06:41:24 PM 47.6070 -122.4940 346° North 204 235 2,100 -500 Descending FlightAware ADS-B
Fri 06:41:28 PM 47.6110 -122.4950 352° North 203 234 2,100  Level FlightAware ADS-B
Fri 06:41:49 PM 47.6297 -122.4900 33° Northeast 203 234 2,100  Level FlightAware ADS-B
Fri 06:41:57 PM 47.6349 -122.4820 47° Northeast 202 232 2,100  Level FlightAware ADS-B
Fri 06:42:00 PM 47.6366 -122.4780 52° Northeast 202 232 2,100  Level FlightAware ADS-B
Fri 06:42:05 PM 47.6394 -122.4720 56° Northeast 202 232 2,100  Level FlightAware ADS-B
Fri 06:42:08 PM 47.6408 -122.4690 60° Northeast 202 232 2,100  Level FlightAware ADS-B
Fri 06:42:14 PM 47.6426 -122.4610 74° East 201 231 2,100  Level FlightAware ADS-B
Fri 06:42:25 PM 47.6416 -122.4470 79° East 200 230 2,100 -261 Level FlightAware ADS-B
Fri 06:42:37 PM 47.6429 -122.4538 122° Southeast 178 205 2,000 -400 Descending FlightAware ADS-B
Fri 06:42:40 PM 47.6355 -122.4300 123° Southeast 178 205 2,000  Level FlightAware ADS-B
Fri 06:42:47 PM 47.6323 -122.4240 127° Southeast 174 200 2,000  Level FlightAware ADS-B
Fri 06:42:54 PM 47.6290 -122.4177 128° Southeast 172 198 2,000  Level FlightAware ADS-B
Fri 06:43:00 PM 47.6257 -122.4110 128° Southeast 168 193 2,000 -316 Level FlightAware ADS-B
Fri 06:43:13 PM 47.6195 -122.4000 129° Southeast 164 189 1,900 -375 Descending FlightAware ADS-B
Fri 06:43:16 PM 47.6188 -122.3989 129° Southeast 164 189 1,900 -857 Level FlightAware ADS-B
Fri 06:43:27 PM 47.6126 -122.3880 131° Southeast 162 186 1,700 -857 Descending FlightAware ADS-B
Fri 06:43:37 PM 47.6081 -122.3806 133° Southeast 161 185 1,600 -857 Descending FlightAware ADS-B
Fri 06:43:48 PM 47.6022 -122.3710 133° Southeast 161 185 1,400 -947 Descending FlightAware ADS-B
Fri 06:43:56 PM 47.5992 -122.3660 134° Southeast 163 188 1,300 -783 Descending FlightAware ADS-B
Fri 06:44:57 PM 47.5619 -122.3306 134° Southeast 161 185 500 17,902 Descending Seattle Center
Fri 06:45:59 PM 47.5281 -122.3003 149° Southeast 160 184 38,000 36,290 Climbing Seattle Center
Fri 06:48:00 PM 47.2797 -122.3263 145° Southeast  Level FlightAware Approximate
Fri 06:55:00 PM 46.4422 -121.4662 144° Southeast  Level FlightAware Approximate
Fri 06:56:00 PM 46.3238 -121.3417 144° Southeast  Level FlightAware Approximate
Fri 06:57:00 PM 46.2040 -121.2206 145° Southeast  Level FlightAware Approximate
Fri 06:58:00 PM 46.0839 -121.1002 145° Southeast  Level FlightAware Approximate
Fri 06:59:00 PM 45.9638 -120.9800 145° Southeast  Level FlightAware Approximate
Fri 07:00:00 PM 45.8436 -120.8604 145° Southeast  Level FlightAware Approximate
Fri 07:01:00 PM 45.7234 -120.7412 145° Southeast  Level FlightAware Approximate
Fri 07:02:00 PM 45.6030 -120.6225 145° Southeast  Level FlightAware Approximate
Fri 07:03:00 PM 45.4824 -120.5043 145° Southeast  Level FlightAware Approximate
Fri 07:04:00 PM 45.3618 -120.3866 146° Southeast  Level FlightAware Approximate
Fri 07:05:00 PM 45.2410 -120.2694 146° Southeast  Level FlightAware Approximate
Fri 07:06:00 PM 45.1202 -120.1527 146° Southeast  Level FlightAware Approximate
Fri 07:07:00 PM 44.9984 -120.0382 146° Southeast  Level FlightAware Approximate
Fri 07:08:00 PM 44.8763 -119.9246 147° Southeast  Level FlightAware Approximate
Fri 07:09:00 PM 44.7541 -119.8113 147° Southeast  Level FlightAware Approximate
Fri 07:10:00 PM 44.6350 -119.6989 25° Northeast  Level FlightAware Approximate
Fri 07:11:00 PM 44.7671 -119.6109 25° Northeast  Level FlightAware Approximate
Fri 07:12:00 PM 44.8983 -119.5199 26° Northeast  Level FlightAware Approximate
Fri 07:13:00 PM 45.0293 -119.4281 26° Northeast  Level FlightAware Approximate
Fri 07:14:00 PM 45.1597 -119.3346 28° Northeast  Level FlightAware Approximate
Fri 07:15:00 PM 45.2891 -119.2379 28° Northeast  Level FlightAware Approximate
Fri 07:16:00 PM 45.4184 -119.1408 28° Northeast  Level FlightAware Approximate
Fri 07:17:00 PM 45.5473 -119.0423 29° Northeast  Level FlightAware Approximate
Fri 07:18:00 PM 45.6748 -118.9401 29° Northeast  Level FlightAware Approximate
Fri 07:19:00 PM 45.6629 -118.7402 99° East  Level FlightAware Approximate
Fri 07:20:00 PM 45.6406 -118.5335 99° East  Level FlightAware Approximate
Fri 07:21:00 PM 45.6216 -118.3268 101° East  Level FlightAware Approximate
Fri 07:22:00 PM 45.5946 -118.1214 101° East  Level FlightAware Approximate
Fri 07:23:00 PM 45.5672 -117.9162 101° East  Level FlightAware Approximate
Fri 07:24:00 PM 45.5394 -117.7112 101° East  Level FlightAware Approximate
Fri 07:25:00 PM 45.5172 -117.5050 98° East  Level FlightAware Approximate
Fri 07:26:00 PM 45.4906 -117.2998 100° East  Level FlightAware Approximate
Fri 07:27:00 PM 45.4635 -117.0949 101° East  Level FlightAware Approximate
Fri 07:28:00 PM 45.4360 -116.8902 101° East  Level FlightAware Approximate
Fri 07:29:00 PM 45.4081 -116.6857 101° East  Level FlightAware Approximate
Fri 07:30:00 PM 45.3799 -116.4814 101° East  Level FlightAware Approximate
Fri 07:31:00 PM 45.3514 -116.2773 101° East  Level FlightAware Approximate
Fri 07:32:00 PM 45.3226 -116.0734 101° East  Level FlightAware Approximate
Fri 07:33:00 PM 45.2937 -115.8696 101° East  Level FlightAware Approximate
Fri 07:34:00 PM 45.2645 -115.6660 101° East  Level FlightAware Approximate
Fri 07:35:00 PM 45.2350 -115.4626 102° East  Level FlightAware Approximate
Fri 07:36:00 PM 45.2050 -115.2595 102° East  Level FlightAware Approximate
Fri 07:37:00 PM 45.1747 -115.0565 102° East  Level FlightAware Approximate
Fri 07:38:00 PM 45.1441 -114.8538 102° East  Level FlightAware Approximate
Fri 07:39:00 PM 45.1118 -114.6517 103° East  Level FlightAware Approximate
Fri 07:40:00 PM 45.0784 -114.4500 103° East  Level FlightAware Approximate
Fri 07:41:00 PM 45.0446 -114.2486 103° East  Level FlightAware Approximate
Fri 07:42:00 PM 45.0311 -114.1141 304° West  Level FlightAware Approximate
Fri 07:43:00 PM 45.1119 -114.2866 304° West  Level FlightAware Approximate
Fri 07:44:00 PM 45.1925 -114.4596 303° West  Level FlightAware Approximate
Fri 07:45:00 PM 45.2728 -114.6331 303° West  Level FlightAware Approximate
Fri 07:46:00 PM 45.3528 -114.8072 303° West  Level FlightAware Approximate
Fri 07:47:00 PM 45.4326 -114.9816 303° West  Level FlightAware Approximate
Fri 07:48:00 PM 45.5103 -115.1583 302° West  Level FlightAware Approximate
Fri 07:49:00 PM 45.5877 -115.3354 302° West  Level FlightAware Approximate
Fri 07:50:00 PM 45.6648 -115.5130 302° West  Level FlightAware Approximate
Fri 07:51:00 PM 45.7416 -115.6911 302° West  Level FlightAware Approximate
Fri 07:52:00 PM 45.8182 -115.8697 302° West  Level FlightAware Approximate
Fri 07:53:00 PM 45.8945 -116.0488 302° West  Level FlightAware Approximate
Fri 07:54:00 PM 45.9705 -116.2283 301° West  Level FlightAware Approximate
Fri 07:55:00 PM 46.0463 -116.4084 301° West  Level FlightAware Approximate
Fri 07:56:00 PM 46.1217 -116.5890 301° West  Level FlightAware Approximate
Fri 07:57:00 PM 46.1969 -116.7700 301° West  Level FlightAware Approximate
Fri 07:58:00 PM 46.2718 -116.9516 301° West  Level FlightAware Approximate
Fri 07:59:00 PM 46.3464 -117.1336 301° West  Level FlightAware Approximate
Fri 08:00:00 PM 46.4204 -117.3163 300° West  Level FlightAware Approximate
Fri 08:01:00 PM 46.4941 -117.4996 300° West  Level FlightAware Approximate
Fri 08:02:00 PM 46.5675 -117.6834 300° West  Level FlightAware Approximate
Fri 08:03:00 PM 46.6406 -117.8677 300° West  Level FlightAware Approximate
Fri 08:04:00 PM 46.7135 -118.0525 300° West  Level FlightAware Approximate
Fri 08:05:00 PM 46.7860 -118.2378 300° West  Level FlightAware Approximate
Fri 08:06:00 PM 46.8592 -118.4228 300° West  Level FlightAware Approximate
Fri 08:07:00 PM 46.9319 -118.6084 298° West  Level FlightAware Approximate
Fri 08:08:00 PM 47.0010 -118.7971 299° West  Level FlightAware Approximate
Fri 08:09:00 PM 47.0767 -118.9801 296° West  Level FlightAware Approximate
Fri 08:10:00 PM 47.1462 -119.1688 302° West  Level FlightAware Approximate
Fri 08:11:00 PM 47.2000 -119.3167 296° West  Level FlightAware Approximate
Fri 08:12:00 PM 47.2086 -119.3191 296° West  Level Estimated
Fri 08:13:00 PM 47.2086 -119.3191 296° West  Level Estimated
Fri 08:14:00 PM 47.2086 -119.3191 296° West  Level Estimated
Fri 08:15:00 PM 47.2086 -119.3191 296° West  Level Estimated
Fri 08:16:00 PM 47.2086 -119.3191 296° West  Level Estimated
Fri 08:17:00 PM 47.2086 -119.3191 296° West  Level Estimated
Fri 08:18:00 PM 47.2086 -119.3191 296° West  Level Estimated
Fri 08:19:00 PM 47.2086 -119.3191 296° West  Level Estimated
Fri 08:20:00 PM 47.2086 -119.3191 296° West  Level Estimated
Fri 08:21:00 PM 47.2086 -119.3191 296° West  Level Estimated
Fri 08:22:00 PM 47.2086 -119.3191 296° West  Level Estimated
Fri 08:23:00 PM 47.2086 -119.3191 296° West  Level Estimated
Fri 08:24:00 PM 47.2086 -119.3191 296° West  Level Estimated
Fri 08:25:00 PM 47.2086 -119.3191 296° West  Level Estimated
Fri 08:26:00 PM 47.2086 -119.3191 296° West  Level Estimated
Fri 08:27:00 PM 47.2086 -119.3191 296° West  Level Estimated
Fri 08:28:00 PM 47.2086 -119.3191 296° West  Level Estimated
Fri 08:29:00 PM 47.2086 -119.3191 296° West  Level Estimated
Fri 08:30:00 PM 47.2086 -119.3191 296° West  Level Estimated
Fri 08:31:00 PM 47.2086 -119.3191 296° West  Level Estimated
Fri 08:32:00 PM 47.2086 -119.3191 296° West  Level Estimated
Fri 08:33:00 PM 47.2086 -119.3191 296° West  Level Estimated
Fri 08:34:00 PM 47.2086 -119.3191 296° West  Level Estimated
Fri 08:35:00 PM 47.2086 -119.3191 296° West  Level Estimated
Fri 08:36:00 PM 47.2086 -119.3191 296° West  Level Estimated
Fri 08:37:00 PM 47.2086 -119.3191 296° West  Level Estimated
Fri 08:38:00 PM 47.2086 -119.3191 296° West  Level Estimated
Fri 08:39:00 PM 47.2086 -119.3191 296° West  Level Estimated
Fri 08:40:00 PM 47.2086 -119.3191 296° West  Level Estimated
Fri 08:41:00 PM 47.2086 -119.3191 296° West  Level Estimated
Fri 08:42:00 PM 47.2086 -119.3191 296° West  Level Estimated
Fri 08:43:00 PM 47.2086 -119.3191 296° West  Level Estimated
Fri 08:44:00 PM 47.2086 -119.3191 296° West  Level Estimated
Fri 08:45:00 PM 47.2086 -119.3191 296° West  Level Estimated
Fri 08:46:00 PM 47.2086 -119.3191 296° West  Level Estimated
Fri 08:47:00 PM 47.2086 -119.3191 296° West  Level Estimated
Fri 08:48:00 PM 47.2086 -119.3191 296° West  Level Estimated
Fri 08:49:00 PM 47.2086 -119.3191 296° West  Level Estimated
Fri 08:50:00 PM 47.2086 -119.3191 296° West  Level Estimated
Fri 08:51:00 PM 47.2086 -119.3191 296° West  Level Estimated
Fri 08:52:00 PM 47.2086 -119.3191 296° West  Level Estimated
Fri 08:53:00 PM 47.2086 -119.3191 296° West  Level Estimated
Fri 08:54:00 PM 47.2086 -119.3191 296° West  Level Estimated
Fri 08:55:00 PM 47.2086 -119.3191 296° West  Level Estimated
Fri 08:56:00 PM 47.2086 -119.3191 296° West  Level Estimated
Fri 08:57:00 PM 47.2086 -119.3191 296° West  Level Estimated
Fri 08:58:00 PM 47.2086 -119.3191 296° West  Level Estimated
Fri 08:59:00 PM 47.2086 -119.3191 296° West  Level Estimated
Fri 09:00:00 PM 47.2086 -119.3191 296° West  Level Estimated
Fri 09:01:00 PM 47.2086 -119.3191 296° West  Level Estimated
Fri 09:02:00 PM 47.2086 -119.3191 296° West  Level Estimated
Fri 09:03:00 PM 47.2086 -119.3191 296° West  Level Estimated
Fri 09:04:00 PM 47.2086 -119.3191 296° West  Level Estimated
Fri 09:05:00 PM 47.2086 -119.3191 296° West  Level Estimated
Fri 09:06:00 PM 47.2086 -119.3191 296° West  Level Estimated
Fri 09:07:00 PM 47.2086 -119.3191 296° West  Level Estimated
Fri 09:08:00 PM 47.2086 -119.3191 296° West  Level Estimated
Fri 09:09:00 PM 47.2086 -119.3191 296° West  Level Estimated
Fri 09:10:00 PM 47.2086 -119.3191 296° West  Level Estimated
Fri 09:11:00 PM 47.2086 -119.3191 296° West  Level Estimated
Fri 09:12:00 PM 47.2086 -119.3191 296° West  Level Estimated
Fri 09:13:00 PM 47.2086 -119.3191 296° West  Level Estimated
Fri 09:14:00 PM 47.2086 -119.3191 296° West  Level Estimated
Fri 09:15:00 PM 47.2086 -119.3191 296° West  Level Estimated
Fri 09:16:00 PM 47.2086 -119.3191 296° West  Level Estimated
Fri 09:17:00 PM 47.2086 -119.3191 296° West  Level Estimated
Fri 09:18:00 PM 47.2086 -119.3191 296° West  Level Estimated
Fri 09:19:00 PM 47.2086 -119.3191 296° West  Level Estimated
Fri 09:20:00 PM 47.2086 -119.3191 296° West  Level Estimated
Fri 09:21:00 PM 47.2086 -119.3191 296° West  Level Estimated

Login

Don't have an account? Register now (free) for customized features, flight alerts, and more!